createdAt,value
2019-02-03T00:01:26.760Z,87.31
2019-02-03T00:03:56.343Z,87.20
2019-02-03T00:06:25.942Z,88.46
2019-02-03T00:08:55.651Z,88.85
2019-02-03T00:11:25.361Z,88.91
2019-02-03T00:13:54.981Z,89.72
2019-02-03T00:16:24.683Z,89.76
2019-02-03T00:18:54.238Z,89.28
2019-02-03T00:21:23.840Z,89.39
2019-02-03T00:23:53.402Z,90.24
2019-02-03T00:26:22.944Z,90.67
2019-02-03T00:28:52.637Z,90.77
2019-02-03T00:31:22.262Z,91.12
2019-02-03T00:33:51.833Z,90.91
2019-02-03T00:36:21.764Z,91.00
2019-02-03T00:38:51.489Z,91.70
2019-02-03T00:41:21.088Z,91.18
2019-02-03T00:43:50.696Z,90.59
2019-02-03T00:46:20.279Z,89.86
2019-02-03T00:48:50.346Z,89.94
2019-02-03T00:51:19.873Z,90.28
2019-02-03T00:53:49.469Z,90.33
2019-02-03T00:56:19.122Z,90.45
2019-02-03T00:58:48.696Z,91.14
2019-02-03T01:01:18.235Z,91.68
2019-02-03T01:03:47.851Z,91.73
2019-02-03T01:06:17.408Z,91.89
2019-02-03T01:08:47.061Z,92.13
2019-02-03T01:11:16.776Z,92.86
2019-02-03T01:13:46.296Z,93.33
2019-02-03T01:16:16.028Z,93.03
2019-02-03T01:18:45.630Z,93.18
2019-02-03T01:21:15.299Z,92.93
2019-02-03T01:23:44.909Z,92.99
2019-02-03T01:26:14.621Z,92.78
2019-02-03T01:28:44.617Z,92.57
2019-02-03T01:31:14.303Z,92.86
2019-02-03T01:33:43.918Z,92.89
2019-02-03T01:36:13.546Z,93.11
2019-02-03T01:38:43.121Z,93.41
2019-02-03T01:41:12.876Z,93.43
2019-02-03T01:43:42.487Z,93.51
2019-02-03T01:46:12.137Z,92.75
2019-02-03T01:48:41.811Z,93.28
2019-02-03T01:51:11.554Z,93.64
2019-02-03T01:53:41.321Z,95.08
2019-02-03T01:56:11.186Z,95.40
2019-02-03T01:58:40.880Z,95.81
2019-02-03T02:01:10.377Z,95.86
2019-02-03T02:03:39.996Z,96.04
2019-02-03T02:06:09.662Z,95.85
2019-02-03T02:08:39.600Z,95.51
2019-02-03T02:11:09.204Z,95.54
2019-02-03T02:13:38.909Z,95.59
2019-02-03T02:16:08.545Z,95.62
2019-02-03T02:18:38.183Z,96.27
2019-02-03T02:21:07.827Z,96.22
2019-02-03T02:23:37.404Z,95.78
2019-02-03T02:26:07.506Z,95.96
2019-02-03T02:28:37.156Z,95.40
2019-02-03T02:31:06.771Z,95.09
2019-02-03T02:33:36.378Z,96.79
2019-02-03T02:36:06.404Z,96.63
2019-02-03T02:38:36.003Z,96.36
2019-02-03T02:41:05.612Z,96.86
2019-02-03T02:43:35.265Z,96.09
2019-02-03T02:46:04.929Z,96.02
2019-02-03T02:48:34.572Z,95.44
2019-02-03T02:51:04.104Z,95.58
2019-02-03T02:53:33.760Z,94.85
2019-02-03T02:56:03.356Z,95.02
2019-02-03T02:58:33.006Z,94.66
2019-02-03T03:01:02.675Z,93.32
2019-02-03T03:03:32.515Z,92.63
2019-02-03T03:06:02.039Z,92.50
2019-02-03T03:08:31.630Z,92.60
2019-02-03T03:11:01.256Z,91.47
2019-02-03T03:13:30.782Z,90.72
2019-02-03T03:16:00.470Z,87.85
2019-02-03T03:18:30.025Z,83.38
2019-02-03T03:20:59.679Z,80.41
2019-02-03T03:23:29.391Z,79.71
2019-02-03T03:25:59.061Z,78.20
2019-02-03T03:28:28.707Z,78.27
2019-02-03T03:30:58.370Z,78.66
2019-02-03T03:33:28.056Z,79.16
2019-02-03T03:35:57.597Z,79.16
2019-02-03T03:38:32.198Z,78.00
2019-02-03T03:40:58.587Z,77.28
2019-02-03T03:43:28.368Z,76.29
2019-02-03T03:45:57.978Z,75.44
2019-02-03T03:48:27.659Z,75.91
2019-02-03T03:50:57.193Z,75.03
2019-02-03T03:53:26.894Z,75.90
2019-02-03T03:55:56.416Z,75.73
2019-02-03T03:58:26.109Z,76.08
2019-02-03T04:00:55.708Z,75.08
2019-02-03T04:03:25.326Z,75.48
2019-02-03T04:05:54.930Z,76.02
2019-02-03T04:08:24.592Z,76.11
2019-02-03T04:10:54.187Z,76.29
2019-02-03T04:13:23.814Z,76.90
2019-02-03T04:15:53.473Z,77.94
2019-02-03T04:18:23.011Z,79.11
2019-02-03T04:20:52.674Z,79.67
2019-02-03T04:23:22.727Z,80.09
2019-02-03T04:25:54.462Z,80.43
2019-02-03T04:28:23.998Z,81.68
2019-02-03T04:30:53.563Z,82.54
2019-02-03T04:33:23.104Z,83.14
2019-02-03T04:35:52.686Z,83.61
2019-02-03T04:38:22.291Z,84.22
2019-02-03T04:40:51.850Z,85.39
2019-02-03T04:43:21.513Z,85.88
2019-02-03T04:45:51.131Z,86.30
2019-02-03T04:48:20.716Z,86.79
2019-02-03T04:50:50.466Z,86.81
2019-02-03T04:53:20.175Z,87.18
2019-02-03T04:55:49.798Z,87.51
2019-02-03T04:58:19.340Z,87.92
2019-02-03T05:00:48.965Z,87.84
2019-02-03T05:03:18.606Z,88.69
2019-02-03T05:05:48.182Z,89.97
2019-02-03T05:08:17.795Z,90.32
2019-02-03T05:10:47.405Z,90.88
2019-02-03T05:13:17.137Z,91.50
2019-02-03T05:15:46.848Z,91.70
2019-02-03T05:18:16.519Z,91.79
2019-02-03T05:20:46.132Z,92.19
2019-02-03T05:23:15.764Z,91.68
2019-02-03T05:25:45.482Z,91.10
2019-02-03T05:28:15.067Z,91.26
2019-02-03T05:30:44.884Z,91.83
2019-02-03T05:33:14.402Z,91.68
2019-02-03T05:35:44.038Z,92.32
2019-02-03T05:38:13.583Z,92.70
2019-02-03T05:40:43.132Z,93.31
2019-02-03T05:43:12.650Z,94.01
2019-02-03T05:45:42.323Z,93.67
2019-02-03T05:48:11.869Z,93.10
2019-02-03T05:50:41.488Z,93.19
2019-02-03T05:53:11.122Z,92.94
2019-02-03T05:55:40.789Z,92.39
2019-02-03T05:58:10.769Z,92.46
2019-02-03T06:00:41.948Z,92.11
2019-02-03T06:03:11.611Z,91.93
2019-02-03T06:05:41.227Z,91.78
2019-02-03T06:08:10.844Z,91.59
2019-02-03T06:10:40.532Z,91.69
2019-02-03T06:13:10.232Z,91.34
2019-02-03T06:15:39.849Z,90.73
2019-02-03T06:18:09.504Z,89.84
2019-02-03T06:20:39.269Z,89.85
2019-02-03T06:23:09.831Z,88.53
2019-02-03T06:25:39.372Z,87.97
2019-02-03T06:28:09.050Z,88.01
2019-02-03T06:31:22.769Z,87.25
2019-02-03T06:33:53.653Z,86.94
2019-02-03T06:36:24.235Z,85.86
2019-02-03T06:38:54.916Z,86.06
2019-02-03T06:41:24.568Z,85.26
2019-02-03T06:43:54.244Z,85.03
2019-02-03T06:46:41.200Z,83.25
2019-02-03T06:49:20.538Z,82.26
2019-02-03T06:51:50.136Z,81.31
2019-02-03T06:54:19.686Z,80.36
2019-02-03T06:56:49.252Z,80.25
2019-02-03T06:59:18.894Z,78.86
2019-02-03T07:01:48.571Z,78.06
2019-02-03T07:04:18.682Z,77.28
2019-02-03T07:06:48.302Z,75.73
2019-02-03T07:09:17.944Z,74.43
2019-02-03T07:11:47.622Z,73.57
2019-02-03T07:14:17.356Z,69.40
2019-02-03T07:16:46.899Z,67.76
2019-02-03T07:19:16.943Z,68.44
2019-02-03T07:21:49.339Z,66.71
2019-02-03T07:24:17.848Z,65.03
2019-02-03T07:26:47.411Z,65.79
2019-02-03T07:29:17.017Z,66.68
2019-02-03T07:31:46.966Z,64.31
2019-02-03T07:34:16.538Z,61.74
2019-02-03T07:36:46.162Z,60.52
2019-02-03T07:39:15.771Z,61.14
2019-02-03T07:41:45.500Z,60.19
2019-02-03T07:44:15.179Z,58.52
2019-02-03T07:46:44.820Z,57.81
2019-02-03T07:49:14.354Z,55.19
2019-02-03T07:51:43.906Z,54.99
2019-02-03T07:54:13.427Z,52.52
2019-02-03T07:56:43.040Z,51.87
2019-02-03T07:59:12.849Z,50.86
2019-02-03T08:01:42.390Z,48.91
2019-02-03T08:04:12.028Z,48.70
2019-02-03T08:06:41.557Z,48.03
2019-02-03T08:09:11.835Z,47.88
2019-02-03T08:11:41.395Z,46.80
2019-02-03T08:14:11.087Z,46.49
2019-02-03T08:16:40.658Z,46.29
2019-02-03T08:19:10.180Z,46.06
2019-02-03T08:21:40.206Z,45.43
2019-02-03T08:24:09.915Z,45.63
2019-02-03T08:26:39.938Z,44.88
2019-02-03T08:29:09.504Z,45.49
2019-02-03T08:31:39.044Z,44.89
2019-02-03T08:34:08.656Z,46.06
2019-02-03T08:36:38.322Z,45.01
2019-02-03T08:39:09.368Z,45.78
2019-02-03T08:41:39.034Z,47.12
2019-02-03T08:44:08.697Z,46.70
2019-02-03T08:46:41.027Z,46.64
2019-02-03T08:49:10.583Z,47.15
2019-02-03T08:51:40.258Z,47.45
2019-02-03T08:54:10.025Z,47.79
2019-02-03T08:56:39.639Z,48.12
2019-02-03T08:59:09.293Z,48.21
2019-02-03T09:01:38.886Z,48.02
2019-02-03T09:04:08.490Z,48.49
2019-02-03T09:06:38.469Z,48.25
2019-02-03T09:09:10.300Z,47.76
2019-02-03T09:11:39.932Z,47.35
2019-02-03T09:14:09.587Z,46.68
2019-02-03T09:16:39.151Z,47.16
2019-02-03T09:19:08.797Z,46.62
2019-02-03T09:21:38.390Z,46.41
2019-02-03T09:24:08.040Z,45.48
2019-02-03T09:26:37.735Z,45.73
2019-02-03T09:29:07.272Z,45.12
2019-02-03T09:31:36.947Z,45.23
2019-02-03T09:34:06.818Z,45.52
2019-02-03T09:36:36.376Z,45.55
2019-02-03T09:39:12.132Z,45.35
2019-02-03T09:41:41.826Z,44.90
2019-02-03T09:44:11.410Z,44.81
2019-02-03T09:46:41.306Z,44.15
2019-02-03T09:49:11.022Z,43.81
2019-02-03T09:51:43.290Z,43.61
2019-02-03T09:54:13.018Z,43.40
2019-02-03T09:56:42.764Z,43.32
2019-02-03T09:59:12.658Z,42.46
2019-02-03T10:01:42.330Z,42.10
2019-02-03T10:04:12.053Z,41.38
2019-02-03T10:06:41.566Z,41.41
2019-02-03T10:09:11.119Z,41.65
2019-02-03T10:11:40.875Z,41.17
2019-02-03T10:14:10.536Z,40.79
2019-02-03T10:16:40.079Z,40.46
2019-02-03T10:19:09.686Z,40.25
2019-02-03T10:21:39.239Z,40.72
2019-02-03T10:24:08.876Z,41.11
2019-02-03T10:26:39.056Z,41.27
2019-02-03T10:29:07.822Z,41.48
2019-02-03T10:31:38.869Z,42.42
2019-02-03T10:34:08.410Z,42.93
2019-02-03T10:36:38.067Z,43.14
2019-02-03T10:39:10.266Z,43.17
2019-02-03T10:41:40.324Z,43.93
2019-02-03T10:44:09.889Z,44.59
2019-02-03T10:46:39.580Z,44.94
2019-02-03T10:49:09.308Z,44.61
2019-02-03T10:51:38.899Z,44.31
2019-02-03T10:54:08.816Z,43.60
2019-02-03T10:56:38.479Z,42.63
2019-02-03T10:59:08.116Z,41.17
2019-02-03T11:01:37.729Z,41.15
2019-02-03T11:04:07.285Z,42.01
2019-02-03T11:06:36.833Z,41.97
2019-02-03T11:09:09.688Z,41.33
2019-02-03T11:11:39.376Z,40.80
2019-02-03T11:14:08.943Z,41.20
2019-02-03T11:16:38.492Z,41.41
2019-02-03T11:19:09.402Z,41.99
2019-02-03T11:21:39.044Z,42.39
2019-02-03T11:24:08.700Z,43.10
2019-02-03T11:26:38.276Z,43.61
2019-02-03T11:29:07.915Z,44.14
2019-02-03T11:31:37.523Z,44.45
2019-02-03T11:34:07.144Z,43.51
2019-02-03T11:36:36.842Z,43.56
2019-02-03T11:39:08.817Z,43.55
2019-02-03T11:41:48.720Z,43.76
2019-02-03T11:44:09.804Z,43.75
2019-02-03T11:46:39.372Z,42.94
2019-02-03T11:49:08.986Z,42.98
2019-02-03T11:51:38.983Z,43.33
2019-02-03T11:54:08.644Z,43.33
2019-02-03T11:56:38.258Z,42.19
2019-02-03T11:59:07.826Z,41.83
2019-02-03T12:01:37.466Z,41.59
2019-02-03T12:04:07.029Z,41.41
2019-02-03T12:06:36.665Z,40.73
2019-02-03T12:09:08.914Z,41.10
2019-02-03T12:11:38.693Z,40.73
2019-02-03T12:14:08.319Z,40.71
2019-02-03T12:16:38.057Z,40.04
2019-02-03T12:19:07.573Z,40.07
2019-02-03T12:21:37.156Z,39.68
2019-02-03T12:24:06.935Z,39.49
2019-02-03T12:26:36.677Z,39.40
2019-02-03T12:29:06.295Z,38.90
2019-02-03T12:31:35.966Z,39.10
2019-02-03T12:34:05.533Z,38.89
2019-02-03T12:36:35.065Z,39.02
2019-02-03T12:39:07.228Z,39.60
2019-02-03T12:41:36.980Z,39.52
2019-02-03T12:44:06.634Z,39.39
2019-02-03T12:46:38.835Z,39.86
2019-02-03T12:49:07.683Z,40.31
2019-02-03T12:51:39.946Z,40.65
2019-02-03T12:54:08.612Z,40.48
2019-02-03T12:56:38.453Z,41.46
2019-02-03T12:59:08.138Z,41.51
2019-02-03T13:01:37.869Z,42.28
2019-02-03T13:04:07.645Z,42.67
2019-02-03T13:06:37.261Z,42.94
2019-02-03T13:09:10.357Z,43.17
2019-02-03T13:11:40.178Z,43.80
2019-02-03T13:14:10.006Z,43.34
2019-02-03T13:16:39.570Z,43.92
2019-02-03T13:19:09.278Z,44.08
2019-02-03T13:21:38.965Z,44.67
2019-02-03T13:24:08.505Z,44.70
2019-02-03T13:26:38.148Z,44.54
2019-02-03T13:29:07.701Z,45.37
2019-02-03T13:31:37.348Z,45.18
2019-02-03T13:34:07.058Z,45.36
2019-02-03T13:36:36.855Z,45.68
2019-02-03T13:39:09.793Z,45.67
2019-02-03T13:41:39.374Z,46.35
2019-02-03T13:44:09.058Z,46.75
2019-02-03T13:46:38.666Z,47.31
2019-02-03T13:49:08.370Z,47.37
2019-02-03T13:51:37.983Z,47.56
2019-02-03T13:54:07.538Z,48.08
2019-02-03T13:56:37.181Z,47.92
2019-02-03T13:59:06.740Z,48.32
2019-02-03T14:01:37.549Z,48.70
2019-02-03T14:04:08.929Z,49.06
2019-02-03T14:06:38.561Z,49.14
2019-02-03T14:09:09.680Z,49.62
2019-02-03T14:11:39.292Z,50.26
2019-02-03T14:14:09.281Z,50.81
2019-02-03T14:16:38.797Z,51.61
2019-02-03T14:19:11.098Z,52.84
2019-02-03T14:21:40.085Z,53.44
2019-02-03T14:24:09.769Z,54.50
2019-02-03T14:26:39.758Z,54.99
2019-02-03T14:29:09.403Z,55.58
2019-02-03T14:31:38.974Z,55.98
2019-02-03T14:34:08.956Z,56.31
2019-02-03T14:36:38.486Z,56.68
2019-02-03T14:39:09.953Z,56.90
2019-02-03T14:41:39.547Z,56.78
2019-02-03T14:44:09.063Z,57.12
2019-02-03T14:46:38.608Z,57.46
2019-02-03T14:49:08.273Z,58.40
2019-02-03T14:51:37.993Z,58.44
2019-02-03T14:54:07.534Z,59.01
2019-02-03T14:56:37.081Z,59.44
2019-02-03T14:59:06.621Z,60.12
2019-02-03T15:01:36.218Z,60.49
2019-02-03T15:04:07.051Z,61.05
2019-02-03T15:06:37.006Z,61.52
2019-02-03T15:09:09.591Z,61.70
2019-02-03T15:11:39.336Z,62.08
2019-02-03T15:14:08.964Z,61.75
2019-02-03T15:16:39.077Z,61.27
2019-02-03T15:19:09.010Z,61.43
2019-02-03T15:21:38.595Z,61.45
2019-02-03T15:24:15.927Z,61.78
2019-02-03T15:26:39.420Z,62.01
2019-02-03T15:29:09.101Z,62.06
2019-02-03T15:31:39.041Z,62.20
2019-02-03T15:34:11.600Z,61.34
2019-02-03T15:36:40.136Z,61.54
2019-02-03T15:39:10.970Z,61.79
2019-02-03T15:41:40.550Z,62.10
2019-02-03T15:44:12.244Z,62.32
2019-02-03T15:46:41.847Z,63.13
2019-02-03T15:49:11.482Z,63.10
2019-02-03T15:51:41.050Z,62.67
2019-02-03T15:54:10.603Z,62.47
2019-02-03T15:56:40.215Z,62.56
2019-02-03T15:59:09.770Z,62.83
2019-02-03T16:01:39.407Z,62.93
2019-02-03T16:04:11.080Z,63.03
2019-02-03T16:06:40.692Z,62.56
2019-02-03T16:09:10.389Z,62.50
2019-02-03T16:11:40.090Z,62.33
2019-02-03T16:14:09.646Z,62.45
2019-02-03T16:16:39.188Z,61.98
2019-02-03T16:19:08.833Z,61.68
2019-02-03T16:21:38.395Z,61.33
2019-02-03T16:24:08.411Z,61.04
2019-02-03T16:26:38.037Z,61.34
2019-02-03T16:29:08.060Z,61.25
2019-02-03T16:31:37.831Z,60.57
2019-02-03T16:34:07.666Z,61.02
2019-02-03T16:36:37.281Z,60.76
2019-02-03T16:39:08.601Z,61.10
2019-02-03T16:41:38.148Z,60.70
2019-02-03T16:44:07.777Z,60.16
2019-02-03T16:46:37.342Z,60.08
2019-02-03T16:49:07.073Z,60.24
2019-02-03T16:51:36.916Z,60.23
2019-02-03T16:54:06.682Z,60.27
2019-02-03T16:56:36.215Z,60.13
2019-02-03T16:59:06.027Z,59.29
2019-02-03T17:01:35.601Z,59.56
2019-02-03T17:04:05.553Z,58.85
2019-02-03T17:06:35.222Z,58.94
2019-02-03T17:09:07.252Z,59.29
2019-02-03T17:11:36.896Z,59.16
2019-02-03T17:14:06.535Z,58.93
2019-02-03T17:16:36.087Z,59.80
2019-02-03T17:19:06.048Z,60.23
2019-02-03T17:21:35.642Z,60.08
2019-02-03T17:24:05.307Z,60.49
2019-02-03T17:26:34.909Z,60.80
2019-02-03T17:29:04.638Z,61.10
2019-02-03T17:31:34.164Z,61.41
2019-02-03T17:34:03.884Z,62.03
2019-02-03T17:36:33.519Z,62.08
2019-02-03T17:39:04.476Z,62.26
2019-02-03T17:41:34.087Z,62.43
2019-02-03T17:44:12.512Z,62.83
2019-02-03T17:46:35.006Z,62.88
2019-02-03T17:49:04.740Z,63.26
2019-02-03T17:51:34.307Z,62.95
2019-02-03T17:54:03.914Z,62.89
2019-02-03T17:56:33.436Z,63.71
2019-02-03T17:59:02.999Z,63.24
2019-02-03T18:01:33.791Z,62.92
2019-02-03T18:04:03.481Z,62.72
2019-02-03T18:06:33.048Z,63.38
2019-02-03T18:09:02.789Z,63.68
2019-02-03T18:11:32.402Z,63.90
2019-02-03T18:14:02.358Z,63.85
2019-02-03T18:16:31.936Z,63.51
2019-02-03T18:19:03.483Z,63.94
2019-02-03T18:21:33.011Z,63.96
2019-02-03T18:24:02.595Z,63.67
2019-02-03T18:26:32.527Z,63.99
2019-02-03T18:29:02.275Z,64.31
2019-02-03T18:31:31.918Z,64.44
2019-02-03T18:34:01.438Z,64.68
2019-02-03T18:36:31.075Z,64.42
2019-02-03T18:39:00.629Z,64.58
2019-02-03T18:41:30.267Z,64.78
2019-02-03T18:43:59.857Z,64.48
2019-02-03T18:46:29.392Z,63.51
2019-02-03T18:48:58.951Z,63.51
2019-02-03T18:51:28.585Z,63.10
2019-02-03T18:53:58.492Z,63.16
2019-02-03T18:56:28.117Z,63.57
2019-02-03T18:58:57.640Z,63.92
2019-02-03T19:01:27.312Z,64.11
2019-02-03T19:03:57.016Z,63.98
2019-02-03T19:06:26.572Z,63.75
2019-02-03T19:08:56.162Z,63.89
2019-02-03T19:11:25.804Z,64.39
2019-02-03T19:13:55.322Z,65.10
2019-02-03T19:16:24.873Z,65.76
2019-02-03T19:18:54.422Z,65.84
2019-02-03T19:21:24.511Z,65.31
2019-02-03T19:23:54.100Z,65.56
2019-02-03T19:26:23.739Z,65.91
2019-02-03T19:28:53.273Z,65.34
2019-02-03T19:31:22.850Z,65.60
2019-02-03T19:33:52.526Z,65.62
2019-02-03T19:36:22.197Z,65.98
2019-02-03T19:38:51.795Z,66.46
2019-02-03T19:41:21.446Z,66.06
2019-02-03T19:43:51.088Z,66.15
2019-02-03T19:46:20.759Z,65.64
2019-02-03T19:48:50.692Z,64.67
2019-02-03T19:51:20.388Z,65.00
2019-02-03T19:53:49.969Z,64.85
2019-02-03T19:56:19.610Z,65.27
2019-02-03T19:58:49.157Z,65.50
2019-02-03T20:01:18.784Z,66.32
2019-02-03T20:03:48.426Z,66.66
2019-02-03T20:06:18.146Z,66.66
2019-02-03T20:08:47.793Z,66.72
2019-02-03T20:11:17.354Z,67.29
2019-02-03T20:13:46.992Z,67.41
2019-02-03T20:16:16.983Z,67.19
2019-02-03T20:18:46.505Z,67.27
2019-02-03T20:21:16.048Z,67.03
2019-02-03T20:23:45.593Z,66.83
2019-02-03T20:26:15.236Z,65.79
2019-02-03T20:28:44.766Z,65.80
2019-02-03T20:31:14.555Z,65.83
2019-02-03T20:33:44.186Z,65.39
2019-02-03T20:36:13.790Z,65.62
2019-02-03T20:38:43.376Z,65.54
2019-02-03T20:41:13.049Z,66.27
2019-02-03T20:43:42.625Z,66.12
2019-02-03T20:46:12.275Z,66.09
2019-02-03T20:48:41.928Z,66.13
2019-02-03T20:51:11.540Z,66.03
2019-02-03T20:53:43.998Z,65.92
2019-02-03T20:56:13.541Z,66.21
2019-02-03T20:58:43.387Z,66.42
2019-02-03T21:01:13.024Z,66.85
2019-02-03T21:03:42.552Z,67.31
2019-02-03T21:06:12.069Z,67.12
2019-02-03T21:08:41.750Z,67.73
2019-02-03T21:11:11.311Z,67.65
2019-02-03T21:13:40.856Z,67.65
2019-02-03T21:16:10.444Z,67.70
2019-02-03T21:18:40.059Z,67.98
2019-02-03T21:21:09.744Z,67.69
2019-02-03T21:23:39.310Z,67.59
2019-02-03T21:26:15.838Z,67.53
2019-02-03T21:28:42.597Z,67.85
2019-02-03T21:31:12.096Z,67.77
2019-02-03T21:33:41.727Z,67.60
2019-02-03T21:36:11.396Z,67.71
2019-02-03T21:38:41.105Z,67.59
2019-02-03T21:41:10.810Z,67.02
2019-02-03T21:43:40.467Z,66.90
2019-02-03T21:46:10.019Z,67.02
2019-02-03T21:48:39.670Z,67.54
2019-02-03T21:51:09.208Z,67.98
2019-02-03T21:53:39.007Z,68.00
2019-02-03T21:56:08.529Z,68.00
2019-02-03T21:58:38.102Z,68.48
2019-02-03T22:01:07.766Z,68.71
2019-02-03T22:03:37.320Z,69.01
2019-02-03T22:06:06.982Z,68.71
2019-02-03T22:08:36.627Z,68.55
2019-02-03T22:11:06.195Z,69.11
2019-02-03T22:13:35.815Z,68.99
2019-02-03T22:16:05.408Z,68.96
2019-02-03T22:18:34.938Z,68.47
2019-02-03T22:21:04.635Z,68.63
2019-02-03T22:23:34.374Z,68.32
2019-02-03T22:26:03.906Z,68.31
2019-02-03T22:28:33.448Z,68.14
2019-02-03T22:31:03.006Z,67.68
2019-02-03T22:33:32.938Z,67.71
2019-02-03T22:36:02.597Z,68.04
2019-02-03T22:38:32.188Z,67.77
2019-02-03T22:41:01.829Z,67.65
2019-02-03T22:43:31.486Z,68.06
2019-02-03T22:46:07.238Z,68.54
2019-02-03T22:48:32.420Z,68.85
2019-02-03T22:51:01.940Z,68.38
2019-02-03T22:53:31.586Z,68.18
2019-02-03T22:56:01.198Z,68.43
2019-02-03T22:58:30.930Z,68.19
2019-02-03T23:01:11.545Z,68.30
2019-02-03T23:04:03.520Z,68.68
2019-02-03T23:06:33.192Z,69.03
2019-02-03T23:09:06.516Z,68.76
2019-02-03T23:11:36.144Z,68.73
2019-02-03T23:14:05.844Z,68.86
2019-02-03T23:16:35.626Z,69.37
2019-02-03T23:19:05.363Z,69.93
2019-02-03T23:21:35.258Z,70.17
2019-02-03T23:24:04.852Z,71.36
2019-02-03T23:26:34.476Z,71.59
2019-02-03T23:29:04.173Z,71.92
2019-02-03T23:31:33.820Z,72.14
2019-02-03T23:34:03.494Z,72.55
2019-02-03T23:36:33.132Z,73.10
2019-02-03T23:39:03.293Z,73.56
2019-02-03T23:41:33.073Z,73.71
2019-02-03T23:44:02.790Z,73.59
2019-02-03T23:46:32.630Z,73.64
2019-02-03T23:49:03.594Z,73.87
2019-02-03T23:51:33.203Z,73.81
2019-02-03T23:54:02.817Z,73.57
2019-02-03T23:56:32.353Z,73.98
2019-02-03T23:59:01.932Z,73.45
